Time;durP1;ratioP1;P1;durP2;ratioP2;P2;SDS_P1;SDS_P2;PMS_P1;PMS_P2;Temp;Humidity;BMP_temperature;BMP_pressure;BME280_temperature;BME280_humidity;BME280_pressure;Samples;Min_cycle;Max_cycle;Signal;HPM_P1;HPM_P2
2022/06/14 00:01:20;;;;;;;2.75;2.47;;;;;;;;;;5062124;28;20197;-69
2022/06/14 00:03:48;;;;;;;5.40;2.63;;;;;;;;;;5061915;28;20205;-69
2022/06/14 00:06:16;;;;;;;6.95;2.95;;;;;;;;;;5061586;28;20224;-69
2022/06/14 00:08:42;;;;;;;5.85;3.13;;;;;;;;;;5061984;28;20201;-69
2022/06/14 00:11:10;;;;;;;6.00;2.60;;;;;;;;;;5061752;28;20197;-69
2022/06/14 00:13:36;;;;;;;4.55;2.63;;;;;;;;;;5062013;28;20204;-69
2022/06/14 00:16:03;;;;;;;4.45;2.78;;;;;;;;;;5064532;28;20505;-69
2022/06/14 00:18:29;;;;;;;3.65;2.95;;;;;;;;;;5065577;28;20223;-69
2022/06/14 00:20:57;;;;;;;4.15;2.90;;;;;;;;;;5065709;28;20390;-69
2022/06/14 00:23:23;;;;;;;5.60;2.92;;;;;;;;;;5065646;28;20499;-69
2022/06/14 00:25:52;;;;;;;6.13;3.25;;;;;;;;;;5065467;28;20197;-69
2022/06/14 00:28:19;;;;;;;5.50;2.88;;;;;;;;;;5065313;28;20201;-69
2022/06/14 00:30:46;;;;;;;5.25;2.97;;;;;;;;;;5065545;28;20220;-69
2022/06/14 00:33:13;;;;;;;2.50;2.40;;;;;;;;;;5065601;28;20197;-69
2022/06/14 00:35:39;;;;;;;4.30;2.72;;;;;;;;;;5065805;28;20203;-69
2022/06/14 00:38:07;;;;;;;3.97;2.70;;;;;;;;;;5065001;28;20224;-69
2022/06/14 00:40:34;;;;;;;4.85;3.00;;;;;;;;;;5065432;28;20366;-69
2022/06/14 00:43:02;;;;;;;3.53;2.60;;;;;;;;;;5065352;28;20362;-69
2022/06/14 00:45:48;;;;;;;5.80;2.70;;;;;;;;;;5065351;28;20264;-69
2022/06/14 00:48:18;;;;;;;6.57;3.00;;;;;;;;;;5065030;28;20204;-69
2022/06/14 00:50:45;;;;;;;8.52;3.05;;;;;;;;;;5064961;28;20214;-69
2022/06/14 00:53:16;;;;;;;6.50;2.72;;;;;;;;;;5065346;28;20204;-69
2022/06/14 00:55:45;;;;;;;3.10;2.90;;;;;;;;;;5065193;28;20197;-69
2022/06/14 00:58:14;;;;;;;4.00;3.13;;;;;;;;;;5064767;28;20220;-69
2022/06/14 01:00:44;;;;;;;4.07;3.05;;;;;;;;;;5064971;28;20201;-69
2022/06/14 01:03:14;;;;;;;8.25;3.20;;;;;;;;;;5064846;28;20197;-69
2022/06/14 01:08:24;;;;;;;4.13;2.88;;;;;;;;;;5064455;28;20208;-69
2022/06/14 01:10:50;;;;;;;6.35;3.30;;;;;;;;;;5064604;28;20246;-69
2022/06/14 01:13:18;;;;;;;3.58;2.95;;;;;;;;;;5064662;28;20197;-69
2022/06/14 01:15:44;;;;;;;4.95;3.10;;;;;;;;;;5064593;28;20538;-69
2022/06/14 01:18:12;;;;;;;4.45;3.38;;;;;;;;;;5064561;28;20220;-69
2022/06/14 01:20:39;;;;;;;6.13;3.00;;;;;;;;;;5064679;28;20384;-69
2022/06/14 01:23:09;;;;;;;5.75;3.03;;;;;;;;;;5064622;28;20423;-69
2022/06/14 01:25:37;;;;;;;7.53;3.28;;;;;;;;;;5064542;28;20235;-69
2022/06/14 01:28:04;;;;;;;3.38;2.90;;;;;;;;;;5063211;28;20208;-69
2022/06/14 01:30:32;;;;;;;6.95;3.00;;;;;;;;;;5064265;28;20205;-69
2022/06/14 01:33:00;;;;;;;4.90;2.92;;;;;;;;;;5064615;28;20197;-69
2022/06/14 01:35:28;;;;;;;3.35;3.03;;;;;;;;;;5064354;28;20215;-69
2022/06/14 01:37:55;;;;;;;7.63;2.80;;;;;;;;;;5063336;28;20205;-69
2022/06/14 01:40:26;;;;;;;3.38;3.08;;;;;;;;;;5064107;28;20204;-69
2022/06/14 01:42:59;;;;;;;5.00;3.15;;;;;;;;;;5064295;28;20209;-69
2022/06/14 01:45:30;;;;;;;3.58;3.17;;;;;;;;;;5064088;28;20197;-69
2022/06/14 01:47:59;;;;;;;3.60;3.17;;;;;;;;;;5063736;28;20197;-69
2022/06/14 01:53:21;;;;;;;6.55;3.30;;;;;;;;;;5064171;28;20243;-69
2022/06/14 01:55:51;;;;;;;4.40;3.55;;;;;;;;;;5063797;28;20493;-69
2022/06/14 01:58:20;;;;;;;3.45;3.13;;;;;;;;;;5063710;28;20225;-69
2022/06/14 02:00:52;;;;;;;4.15;2.88;;;;;;;;;;5063567;28;20197;-69
2022/06/14 02:06:11;;;;;;;5.53;3.17;;;;;;;;;;5063469;28;20224;-69
2022/06/14 02:08:41;;;;;;;3.88;3.22;;;;;;;;;;5063592;28;20197;-69
2022/06/14 02:11:11;;;;;;;9.63;3.80;;;;;;;;;;5063410;28;20528;-69
2022/06/14 02:13:41;;;;;;;5.15;3.38;;;;;;;;;;5063570;28;20268;-69
2022/06/14 02:16:09;;;;;;;5.20;2.92;;;;;;;;;;5063311;28;20197;-69
2022/06/14 02:18:38;;;;;;;3.65;3.30;;;;;;;;;;5063403;28;20500;-69
2022/06/14 02:21:07;;;;;;;7.60;3.13;;;;;;;;;;5063279;28;20197;-69
2022/06/14 02:23:36;;;;;;;4.15;3.40;;;;;;;;;;5063313;28;20204;-69
2022/06/14 02:26:04;;;;;;;4.07;3.33;;;;;;;;;;5063267;28;20201;-69
2022/06/14 02:28:34;;;;;;;6.70;3.30;;;;;;;;;;5063399;28;20398;-69
2022/06/14 02:31:02;;;;;;;4.05;3.60;;;;;;;;;;5063372;28;20185;-69
2022/06/14 02:33:32;;;;;;;7.95;3.47;;;;;;;;;;5063214;28;20208;-69
2022/06/14 02:36:01;;;;;;;3.22;2.90;;;;;;;;;;5063031;28;20268;-69
2022/06/14 02:38:30;;;;;;;4.72;3.55;;;;;;;;;;5063056;28;20369;-69
2022/06/14 02:41:00;;;;;;;7.70;3.47;;;;;;;;;;5063236;28;20505;-69
2022/06/14 02:43:28;;;;;;;6.05;3.05;;;;;;;;;;5062952;28;20216;-69
2022/06/14 02:45:58;;;;;;;5.72;3.67;;;;;;;;;;5062880;28;20497;-69
2022/06/14 02:48:26;;;;;;;9.00;3.58;;;;;;;;;;5062774;28;20254;-69
2022/06/14 02:50:55;;;;;;;3.70;3.40;;;;;;;;;;5062715;28;20385;-69
2022/06/14 02:53:23;;;;;;;3.85;3.30;;;;;;;;;;5062784;28;20198;-69
2022/06/14 02:55:52;;;;;;;4.65;3.55;;;;;;;;;;5062878;28;20205;-69
2022/06/14 02:58:21;;;;;;;3.35;3.15;;;;;;;;;;5062528;28;20201;-69
2022/06/14 03:00:49;;;;;;;4.28;3.42;;;;;;;;;;5062811;28;20201;-69
2022/06/14 03:03:19;;;;;;;4.68;3.30;;;;;;;;;;5062520;28;20233;-69
2022/06/14 03:05:49;;;;;;;6.25;4.07;;;;;;;;;;5062381;28;20427;-69
2022/06/14 03:08:18;;;;;;;4.88;3.65;;;;;;;;;;5062510;28;20212;-69
2022/06/14 03:10:48;;;;;;;4.35;3.20;;;;;;;;;;5062507;28;20197;-69
2022/06/14 03:13:28;;;;;;;3.72;3.33;;;;;;;;;;5062385;28;20197;-69
2022/06/14 03:15:56;;;;;;;5.70;3.70;;;;;;;;;;5062287;28;20251;-69
2022/06/14 03:18:30;;;;;;;4.95;3.78;;;;;;;;;;5062207;28;20373;-69
2022/06/14 03:20:59;;;;;;;7.53;3.15;;;;;;;;;;5062385;28;20225;-69
2022/06/14 03:23:36;;;;;;;3.90;3.40;;;;;;;;;;5062333;28;20540;-69
2022/06/14 03:26:05;;;;;;;3.33;3.13;;;;;;;;;;5062188;28;20508;-69
2022/06/14 03:28:37;;;;;;;3.70;3.45;;;;;;;;;;5062511;28;20200;-69
2022/06/14 03:31:06;;;;;;;3.72;3.38;;;;;;;;;;5062201;28;20205;-69
2022/06/14 03:33:36;;;;;;;6.60;3.88;;;;;;;;;;5062300;28;20366;-69
2022/06/14 03:36:03;;;;;;;5.15;3.88;;;;;;;;;;5062122;28;20504;-69
2022/06/14 03:38:33;;;;;;;7.80;3.55;;;;;;;;;;5061894;28;20220;-69
2022/06/14 03:40:59;;;;;;;4.47;3.70;;;;;;;;;;5062272;28;20359;-69
2022/06/14 03:43:26;;;;;;;5.80;3.60;;;;;;;;;;5062064;28;20197;-69
2022/06/14 03:45:55;;;;;;;5.15;3.67;;;;;;;;;;5061975;28;20197;-69
2022/06/14 03:48:22;;;;;;;7.80;3.67;;;;;;;;;;5061900;28;20204;-69
2022/06/14 03:50:56;;;;;;;5.65;3.80;;;;;;;;;;5064571;28;20199;-69
2022/06/14 03:53:28;;;;;;;7.28;3.75;;;;;;;;;;5066136;28;20197;-69
2022/06/14 03:56:02;;;;;;;4.97;3.72;;;;;;;;;;5066260;28;20212;-69
2022/06/14 03:58:36;;;;;;;5.10;3.83;;;;;;;;;;5066099;28;20208;-69
2022/06/14 04:01:07;;;;;;;5.65;3.20;;;;;;;;;;5066113;28;20200;-69
2022/06/14 04:03:41;;;;;;;4.45;4.05;;;;;;;;;;5065960;28;20197;-69
2022/06/14 04:06:14;;;;;;;5.55;3.35;;;;;;;;;;5065544;28;20224;-69
2022/06/14 04:08:46;;;;;;;5.18;3.33;;;;;;;;;;5066314;28;20426;-69
2022/06/14 04:11:16;;;;;;;5.88;3.50;;;;;;;;;;5065949;28;20197;-69
2022/06/14 04:13:46;;;;;;;4.82;3.83;;;;;;;;;;5065880;28;20211;-69
2022/06/14 04:16:15;;;;;;;7.32;3.92;;;;;;;;;;5065343;28;20201;-70
2022/06/14 04:18:45;;;;;;;4.30;3.70;;;;;;;;;;5065796;28;20198;-70
2022/06/14 04:21:22;;;;;;;3.72;3.40;;;;;;;;;;5065912;28;20208;-70
2022/06/14 04:23:51;;;;;;;9.15;3.88;;;;;;;;;;5066088;28;20203;-71
2022/06/14 04:26:22;;;;;;;4.78;3.58;;;;;;;;;;5065688;28;20197;-70
2022/06/14 04:28:51;;;;;;;4.30;4.00;;;;;;;;;;5065527;28;20212;-70
2022/06/14 04:31:19;;;;;;;5.60;3.83;;;;;;;;;;5065631;28;20212;-70
2022/06/14 04:33:47;;;;;;;4.95;4.05;;;;;;;;;;5065521;28;20205;-71
2022/06/14 04:36:15;;;;;;;4.43;3.80;;;;;;;;;;5065278;28;20197;-71
2022/06/14 04:38:45;;;;;;;6.65;3.88;;;;;;;;;;5065350;28;20514;-70
2022/06/14 04:41:14;;;;;;;4.95;4.03;;;;;;;;;;5065328;28;20193;-70
2022/06/14 04:43:42;;;;;;;5.88;4.28;;;;;;;;;;5065545;28;20197;-70
2022/06/14 04:46:10;;;;;;;9.07;4.30;;;;;;;;;;5065087;28;20212;-70
2022/06/14 04:48:39;;;;;;;6.35;4.30;;;;;;;;;;5065484;28;20516;-70
2022/06/14 04:51:07;;;;;;;5.60;5.00;;;;;;;;;;5065215;28;20201;-70
2022/06/14 04:53:36;;;;;;;5.28;4.57;;;;;;;;;;5064814;28;20254;-70
2022/06/14 04:56:05;;;;;;;4.90;4.50;;;;;;;;;;5065086;28;20243;-70
2022/06/14 04:58:37;;;;;;;8.18;6.93;;;;;;;;;;5065026;28;20197;-70
2022/06/14 05:01:05;;;;;;;7.57;4.72;;;;;;;;;;5064900;28;20319;-70
2022/06/14 05:03:32;;;;;;;6.75;4.55;;;;;;;;;;5065051;28;20197;-70
2022/06/14 05:06:01;;;;;;;4.88;4.32;;;;;;;;;;5064622;28;20225;-70
2022/06/14 05:08:29;;;;;;;8.55;4.30;;;;;;;;;;5064420;28;20289;-70
2022/06/14 05:10:57;;;;;;;7.38;4.45;;;;;;;;;;5064336;28;20369;-70
2022/06/14 05:13:27;;;;;;;5.07;4.38;;;;;;;;;;5064592;28;20523;-70
2022/06/14 05:15:55;;;;;;;5.30;4.60;;;;;;;;;;5053220;28;20234;-71
2022/06/14 05:18:25;;;;;;;6.20;4.68;;;;;;;;;;5054807;28;20251;-69
2022/06/14 05:20:54;;;;;;;7.35;4.35;;;;;;;;;;5054480;28;20225;-67
2022/06/14 05:23:24;;;;;;;4.80;4.40;;;;;;;;;;5049054;28;20419;-67
2022/06/14 05:25:56;;;;;;;6.60;4.80;;;;;;;;;;5055822;28;20213;-59
2022/06/14 05:28:26;;;;;;;8.32;4.53;;;;;;;;;;5057843;28;20225;-58
2022/06/14 05:30:57;;;;;;;7.65;4.70;;;;;;;;;;5058261;28;20212;-59
2022/06/14 05:33:28;;;;;;;5.03;4.63;;;;;;;;;;5058461;28;20212;-59
2022/06/14 05:35:57;;;;;;;9.18;4.68;;;;;;;;;;5058045;28;20209;-59
2022/06/14 05:38:29;;;;;;;13.40;5.05;;;;;;;;;;5058110;28;20408;-61
2022/06/14 05:40:58;;;;;;;7.00;4.97;;;;;;;;;;5057017;28;20229;-59
2022/06/14 05:43:28;;;;;;;8.85;5.03;;;;;;;;;;5038085;28;20202;-60
2022/06/14 05:45:59;;;;;;;5.05;4.57;;;;;;;;;;5037734;28;20408;-57
2022/06/14 05:48:28;;;;;;;6.10;4.50;;;;;;;;;;5037740;28;20216;-58
2022/06/14 05:50:55;;;;;;;12.77;5.10;;;;;;;;;;5037759;28;20408;-58
2022/06/14 05:53:25;;;;;;;10.65;5.15;;;;;;;;;;5051220;28;20209;-58
2022/06/14 05:55:52;;;;;;;9.30;5.30;;;;;;;;;;5057066;28;20216;-58
2022/06/14 05:58:22;;;;;;;9.27;4.97;;;;;;;;;;5057146;28;20300;-58
2022/06/14 06:00:49;;;;;;;12.10;4.80;;;;;;;;;;5057543;28;20430;-57
2022/06/14 06:03:20;;;;;;;9.23;5.15;;;;;;;;;;5057181;28;20230;-58
2022/06/14 06:05:48;;;;;;;7.47;4.68;;;;;;;;;;5056682;28;20239;-58
2022/06/14 06:08:17;;;;;;;11.00;5.10;;;;;;;;;;5055973;28;20216;-58
2022/06/14 06:10:46;;;;;;;6.25;4.82;;;;;;;;;;5045936;28;20273;-58
2022/06/14 06:13:15;;;;;;;7.13;5.22;;;;;;;;;;5043644;28;20224;-58
2022/06/14 06:15:42;;;;;;;11.43;5.20;;;;;;;;;;5056932;28;20424;-58
2022/06/14 06:18:11;;;;;;;6.82;4.45;;;;;;;;;;5056987;28;20213;-58
2022/06/14 06:20:42;;;;;;;9.07;5.13;;;;;;;;;;5058068;28;20427;-58
2022/06/14 06:23:12;;;;;;;5.47;4.07;;;;;;;;;;5057112;28;20213;-59
2022/06/14 06:25:40;;;;;;;5.43;4.45;;;;;;;;;;5057756;28;20217;-59
2022/06/14 06:28:08;;;;;;;7.55;4.80;;;;;;;;;;5056746;28;20212;-58
2022/06/14 06:30:38;;;;;;;6.18;5.00;;;;;;;;;;5055079;28;20201;-59
2022/06/14 06:33:06;;;;;;;5.63;5.03;;;;;;;;;;5037960;28;20217;-61
2022/06/14 06:35:37;;;;;;;5.15;4.65;;;;;;;;;;5036494;28;20213;-61
2022/06/14 06:38:08;;;;;;;12.88;5.55;;;;;;;;;;5038641;28;20575;-59
2022/06/14 06:40:35;;;;;;;11.95;5.57;;;;;;;;;;5047816;28;20229;-59
2022/06/14 06:43:05;;;;;;;9.40;5.05;;;;;;;;;;5050290;28;20213;-58
2022/06/14 06:45:32;;;;;;;4.93;4.30;;;;;;;;;;5036200;28;20213;-59
2022/06/14 06:48:01;;;;;;;6.75;4.55;;;;;;;;;;5046216;28;20212;-60
2022/06/14 06:50:31;;;;;;;10.50;4.97;;;;;;;;;;5056324;28;20438;-59
2022/06/14 06:53:01;;;;;;;9.05;4.20;;;;;;;;;;5056227;28;20255;-59
2022/06/14 06:55:36;;;;;;;6.28;4.22;;;;;;;;;;5056311;28;20209;-59
2022/06/14 06:58:04;;;;;;;8.55;4.35;;;;;;;;;;5055873;28;20219;-59
2022/06/14 07:00:32;;;;;;;9.73;5.43;;;;;;;;;;5056703;28;20474;-59
2022/06/14 07:03:04;;;;;;;9.05;4.50;;;;;;;;;;5047005;28;20396;-59
2022/06/14 07:05:30;;;;;;;9.18;4.75;;;;;;;;;;5054190;28;20237;-58
2022/06/14 07:07:58;;;;;;;8.27;4.72;;;;;;;;;;5055788;28;20216;-59
2022/06/14 07:10:29;;;;;;;10.00;4.53;;;;;;;;;;5056507;28;20205;-58
2022/06/14 07:12:58;;;;;;;7.45;4.40;;;;;;;;;;5056399;28;20213;-58
2022/06/14 07:15:28;;;;;;;7.55;4.80;;;;;;;;;;5055696;28;20405;-58
2022/06/14 07:17:56;;;;;;;6.55;4.20;;;;;;;;;;5056035;28;20236;-59
2022/06/14 07:20:34;;;;;;;9.23;4.28;;;;;;;;;;5055510;28;20232;-59
2022/06/14 07:23:04;;;;;;;9.43;4.80;;;;;;;;;;5056370;28;20213;-59
2022/06/14 07:25:32;;;;;;;10.02;5.10;;;;;;;;;;5055505;28;20216;-58
2022/06/14 07:28:03;;;;;;;9.68;5.25;;;;;;;;;;5055205;28;20216;-58
2022/06/14 07:30:31;;;;;;;7.25;4.43;;;;;;;;;;5041553;28;20545;-60
2022/06/14 07:32:59;;;;;;;6.70;4.10;;;;;;;;;;5036128;28;20221;-60
2022/06/14 07:35:28;;;;;;;8.05;5.05;;;;;;;;;;5035393;28;20456;-60
2022/06/14 07:37:58;;;;;;;6.13;4.28;;;;;;;;;;5035378;28;20220;-59
2022/06/14 07:40:28;;;;;;;10.18;4.28;;;;;;;;;;5035540;28;20236;-59
2022/06/14 07:42:59;;;;;;;6.97;4.25;;;;;;;;;;5035405;28;20285;-60
2022/06/14 07:45:29;;;;;;;9.65;4.72;;;;;;;;;;5035013;28;20245;-60
2022/06/14 07:48:00;;;;;;;7.78;4.05;;;;;;;;;;5036350;28;20209;-59
2022/06/14 07:50:32;;;;;;;7.47;3.85;;;;;;;;;;5035234;28;20224;-60
2022/06/14 07:53:01;;;;;;;7.43;4.00;;;;;;;;;;5046595;28;20220;-57
2022/06/14 07:55:31;;;;;;;6.00;3.63;;;;;;;;;;5055337;28;20213;-58
2022/06/14 07:57:59;;;;;;;10.48;3.70;;;;;;;;;;5055440;28;20393;-59
2022/06/14 08:03:16;;;;;;;8.10;3.95;;;;;;;;;;5055537;28;20235;-60
2022/06/14 08:05:46;;;;;;;4.90;3.72;;;;;;;;;;5055295;28;20237;-59
2022/06/14 08:08:13;;;;;;;8.18;4.25;;;;;;;;;;5055079;28;20209;-60
2022/06/14 08:10:44;;;;;;;4.32;3.78;;;;;;;;;;5044376;28;20213;-60
2022/06/14 08:13:12;;;;;;;6.20;3.53;;;;;;;;;;5035274;28;20209;-60
2022/06/14 08:15:41;;;;;;;5.70;3.25;;;;;;;;;;5035086;28;20209;-60
2022/06/14 08:18:11;;;;;;;8.23;3.40;;;;;;;;;;5035362;28;20301;-60
2022/06/14 08:20:38;;;;;;;6.75;3.50;;;;;;;;;;5034900;28;20229;-59
2022/06/14 08:23:07;;;;;;;5.97;3.40;;;;;;;;;;5035611;28;20367;-60
2022/06/14 08:25:35;;;;;;;7.40;3.45;;;;;;;;;;5035883;28;20210;-60
2022/06/14 08:28:03;;;;;;;6.68;3.17;;;;;;;;;;5034939;28;20458;-60
2022/06/14 08:30:32;;;;;;;9.52;3.58;;;;;;;;;;5034715;28;20217;-60
2022/06/14 08:33:02;;;;;;;6.25;3.50;;;;;;;;;;5044682;28;20424;-61
2022/06/14 08:35:33;;;;;;;6.05;3.10;;;;;;;;;;5054827;28;20380;-60
2022/06/14 08:38:01;;;;;;;6.30;3.15;;;;;;;;;;5057889;28;20213;-60
2022/06/14 08:40:37;;;;;;;4.90;3.13;;;;;;;;;;5058834;28;20296;-60
2022/06/14 08:43:06;;;;;;;9.45;2.78;;;;;;;;;;5058111;28;20216;-61
2022/06/14 08:45:35;;;;;;;6.43;3.10;;;;;;;;;;5043523;28;20540;-60
2022/06/14 08:48:07;;;;;;;4.47;3.10;;;;;;;;;;5048507;28;20563;-61
2022/06/14 08:50:48;;;;;;;8.35;3.35;;;;;;;;;;5057919;28;20205;-61
2022/06/14 08:53:32;;;;;;;7.18;3.40;;;;;;;;;;5057760;28;20280;-58
2022/06/14 08:56:15;;;;;;;7.03;2.60;;;;;;;;;;5058092;28;20492;-59
2022/06/14 08:58:49;;;;;;;5.10;2.65;;;;;;;;;;5058397;28;20217;-60
2022/06/14 09:01:19;;;;;;;7.68;2.65;;;;;;;;;;5058794;28;20228;-60
2022/06/14 09:03:56;;;;;;;2.78;2.58;;;;;;;;;;5053906;28;20213;-59
2022/06/14 09:06:37;;;;;;;4.60;2.80;;;;;;;;;;5037550;28;20241;-60
2022/06/14 09:09:28;;;;;;;7.32;2.80;;;;;;;;;;5047846;28;20685;-59
2022/06/14 09:12:09;;;;;;;5.85;2.78;;;;;;;;;;5027446;28;20205;-59
2022/06/14 09:14:55;;;;;;;4.82;2.90;;;;;;;;;;5038970;28;20360;-60
2022/06/14 09:17:32;;;;;;;4.93;2.50;;;;;;;;;;5053881;28;20204;-61
2022/06/14 09:20:02;;;;;;;6.20;2.65;;;;;;;;;;5057460;28;20212;-60
2022/06/14 09:22:36;;;;;;;4.43;2.75;;;;;;;;;;5058411;28;20225;-59
2022/06/14 09:25:08;;;;;;;4.60;2.60;;;;;;;;;;5058565;28;20434;-60
2022/06/14 09:27:51;;;;;;;8.57;2.72;;;;;;;;;;5057446;28;20212;-59
2022/06/14 09:30:36;;;;;;;10.20;3.10;;;;;;;;;;5057672;28;20300;-61
2022/06/14 09:33:29;;;;;;;5.22;2.80;;;;;;;;;;5058320;28;20216;-60
2022/06/14 09:36:19;;;;;;;6.68;2.42;;;;;;;;;;5046915;28;20213;-59
2022/06/14 09:39:03;;;;;;;6.90;2.50;;;;;;;;;;5001333;28;20215;-57
2022/06/14 09:41:40;;;;;;;6.85;1.90;;;;;;;;;;5047599;28;20220;-59
2022/06/14 09:44:26;;;;;;;3.95;2.10;;;;;;;;;;5048059;28;20204;-59
2022/06/14 09:47:00;;;;;;;3.15;2.03;;;;;;;;;;5047223;28;20212;-59
2022/06/14 09:49:51;;;;;;;4.35;2.60;;;;;;;;;;5042698;28;20213;-58
2022/06/14 09:52:43;;;;;;;7.25;2.40;;;;;;;;;;5037093;28;20202;-59
2022/06/14 09:55:27;;;;;;;6.07;3.30;;;;;;;;;;5043592;28;20217;-58
2022/06/14 09:58:13;;;;;;;6.32;2.20;;;;;;;;;;5049171;28;20424;-59
2022/06/14 10:00:44;;;;;;;9.80;5.60;;;;;;;;;;5056998;28;20238;-58
2022/06/14 10:03:25;;;;;;;5.88;2.40;;;;;;;;;;5057506;28;20219;-58
2022/06/14 10:06:01;;;;;;;3.92;2.15;;;;;;;;;;5057696;28;20267;-59
2022/06/14 10:08:34;;;;;;;7.53;2.58;;;;;;;;;;5039024;28;20528;-58
2022/06/14 10:11:15;;;;;;;2.88;2.22;;;;;;;;;;5038568;28;20205;-61
2022/06/14 10:13:55;;;;;;;2.70;2.17;;;;;;;;;;5028776;28;20221;-57
2022/06/14 10:16:29;;;;;;;6.50;2.90;;;;;;;;;;5045649;28;20232;-58
2022/06/14 10:19:07;;;;;;;4.20;2.65;;;;;;;;;;5039218;28;20212;-58
2022/06/14 10:21:37;;;;;;;2.78;2.30;;;;;;;;;;5036627;28;20241;-58
2022/06/14 10:24:11;;;;;;;12.60;2.80;;;;;;;;;;5037423;28;20214;-59
2022/06/14 10:29:39;;;;;;;4.82;2.30;;;;;;;;;;5035990;28;20219;-59
2022/06/14 10:32:25;;;;;;;3.92;2.10;;;;;;;;;;5036250;28;20408;-59
2022/06/14 10:34:57;;;;;;;6.10;2.50;;;;;;;;;;5036170;28;20213;-59
2022/06/14 10:37:29;;;;;;;5.75;1.98;;;;;;;;;;5055742;28;20230;-59
2022/06/14 10:40:14;;;;;;;3.30;2.20;;;;;;;;;;5038307;28;20221;-58
2022/06/14 10:42:43;;;;;;;5.45;1.85;;;;;;;;;;5036304;28;20556;-59
2022/06/14 10:45:13;;;;;;;5.45;2.17;;;;;;;;;;5035892;28;20213;-60
2022/06/14 10:47:51;;;;;;;2.22;1.85;;;;;;;;;;5036161;28;20382;-59
2022/06/14 10:50:44;;;;;;;2.35;1.98;;;;;;;;;;5051927;28;20246;-60
2022/06/14 10:53:19;;;;;;;2.47;1.73;;;;;;;;;;5031900;28;20212;-59
2022/06/14 10:55:55;;;;;;;5.07;2.35;;;;;;;;;;5055911;28;20212;-60
2022/06/14 10:58:31;;;;;;;4.97;2.03;;;;;;;;;;5056124;28;20258;-60
2022/06/14 11:01:05;;;;;;;4.22;1.83;;;;;;;;;;5055644;28;20211;-60
2022/06/14 11:03:44;;;;;;;3.47;2.08;;;;;;;;;;5054247;28;20219;-60
2022/06/14 11:06:26;;;;;;;2.38;1.95;;;;;;;;;;5035689;28;20248;-59
2022/06/14 11:08:57;;;;;;;3.20;2.00;;;;;;;;;;5043389;28;20212;-60
2022/06/14 11:11:31;;;;;;;4.03;1.85;;;;;;;;;;5055192;28;20208;-60
2022/06/14 11:14:00;;;;;;;7.22;2.30;;;;;;;;;;5055970;28;20204;-60
2022/06/14 11:16:32;;;;;;;6.07;1.60;;;;;;;;;;5054837;28;20471;-60
2022/06/14 11:19:09;;;;;;;2.90;1.70;;;;;;;;;;5049423;28;20213;-61
2022/06/14 11:21:54;;;;;;;3.05;2.00;;;;;;;;;;5047951;28;20232;-60
2022/06/14 11:24:22;;;;;;;4.60;2.30;;;;;;;;;;5029745;28;20216;-61
2022/06/14 11:26:56;;;;;;;3.67;1.80;;;;;;;;;;5036046;28;20465;-61
2022/06/14 11:29:29;;;;;;;3.83;2.20;;;;;;;;;;5035775;28;20421;-61
2022/06/14 11:32:02;;;;;;;4.10;1.88;;;;;;;;;;5036245;28;20209;-59
2022/06/14 11:34:36;;;;;;;4.38;1.80;;;;;;;;;;5056491;28;20542;-60
2022/06/14 11:37:11;;;;;;;2.72;2.10;;;;;;;;;;5049753;28;20213;-61
2022/06/14 11:39:39;;;;;;;3.40;1.92;;;;;;;;;;5035765;28;20212;-60
2022/06/14 11:42:07;;;;;;;4.88;1.95;;;;;;;;;;5035997;28;20556;-61
2022/06/14 11:44:40;;;;;;;2.03;1.88;;;;;;;;;;5036393;28;20283;-60
2022/06/14 11:47:12;;;;;;;5.20;1.90;;;;;;;;;;5035006;28;20213;-61
2022/06/14 11:49:41;;;;;;;3.85;1.75;;;;;;;;;;5036100;28;20241;-61
2022/06/14 11:52:16;;;;;;;5.25;2.03;;;;;;;;;;5041140;28;20212;-61
2022/06/14 11:54:50;;;;;;;2.67;1.80;;;;;;;;;;5055629;28;20424;-61
2022/06/14 11:57:20;;;;;;;3.63;2.08;;;;;;;;;;5055676;28;20219;-60
2022/06/14 11:59:55;;;;;;;3.50;2.35;;;;;;;;;;5043823;28;20212;-60
2022/06/14 12:02:40;;;;;;;2.78;2.08;;;;;;;;;;5055342;28;20580;-59
2022/06/14 12:05:08;;;;;;;2.30;1.70;;;;;;;;;;5055460;28;20427;-60
2022/06/14 12:07:37;;;;;;;2.35;2.15;;;;;;;;;;5055199;28;20216;-59
2022/06/14 12:10:25;;;;;;;4.38;2.08;;;;;;;;;;5049165;28;20213;-59
2022/06/14 12:12:56;;;;;;;5.97;2.35;;;;;;;;;;5039434;28;20212;-60
2022/06/14 12:15:24;;;;;;;3.67;1.70;;;;;;;;;;5052043;28;20207;-60
2022/06/14 12:17:55;;;;;;;7.82;1.90;;;;;;;;;;5059764;28;20231;-60
2022/06/14 12:20:23;;;;;;;5.10;1.88;;;;;;;;;;5059544;28;20467;-61
2022/06/14 12:22:54;;;;;;;3.45;1.88;;;;;;;;;;5059470;28;20228;-61
2022/06/14 12:28:09;;;;;;;3.38;1.98;;;;;;;;;;5045978;28;20254;-61
2022/06/14 12:30:35;;;;;;;4.50;2.20;;;;;;;;;;5056997;28;20213;-61
2022/06/14 12:33:07;;;;;;;3.17;1.88;;;;;;;;;;5039634;28;20236;-61
2022/06/14 12:35:35;;;;;;;2.03;1.77;;;;;;;;;;5051522;28;20220;-60
2022/06/14 12:38:03;;;;;;;4.90;1.92;;;;;;;;;;5039414;28;20216;-60
2022/06/14 12:40:33;;;;;;;3.75;2.00;;;;;;;;;;5039334;28;20213;-61
2022/06/14 12:43:01;;;;;;;5.72;2.25;;;;;;;;;;5038975;28;20579;-61
2022/06/14 12:45:29;;;;;;;3.05;2.40;;;;;;;;;;5038988;28;20245;-61
2022/06/14 12:48:07;;;;;;;2.55;1.90;;;;;;;;;;5039446;28;20217;-61
2022/06/14 12:50:36;;;;;;;2.95;2.05;;;;;;;;;;5038412;28;20213;-61
2022/06/14 12:53:05;;;;;;;2.00;1.75;;;;;;;;;;5038244;28;20209;-61
2022/06/14 12:55:35;;;;;;;3.20;2.22;;;;;;;;;;5038645;28;20220;-61
2022/06/14 12:58:15;;;;;;;4.07;2.20;;;;;;;;;;5056263;28;20524;-61
2022/06/14 13:00:44;;;;;;;4.78;2.08;;;;;;;;;;5058200;28;20211;-61
2022/06/14 13:03:16;;;;;;;2.60;2.08;;;;;;;;;;5057797;28;20243;-61
2022/06/14 13:05:45;;;;;;;2.17;2.00;;;;;;;;;;5057722;28;20240;-61
2022/06/14 13:08:15;;;;;;;3.40;2.08;;;;;;;;;;5058235;28;20283;-60
2022/06/14 13:10:54;;;;;;;3.85;1.88;;;;;;;;;;5047137;28;20216;-58
2022/06/14 13:13:35;;;;;;;6.07;1.95;;;;;;;;;;5046448;28;20212;-59
2022/06/14 13:16:05;;;;;;;1.50;1.40;;;;;;;;;;5034510;28;20443;-60
2022/06/14 13:18:38;;;;;;;4.78;1.95;;;;;;;;;;5057623;28;20262;-59
2022/06/14 13:21:10;;;;;;;4.10;2.17;;;;;;;;;;5048093;28;20293;-59
2022/06/14 13:23:40;;;;;;;6.03;2.13;;;;;;;;;;5042439;28;20228;-60
2022/06/14 13:26:13;;;;;;;2.40;1.75;;;;;;;;;;5057290;28;20213;-60
2022/06/14 13:28:51;;;;;;;5.30;1.70;;;;;;;;;;5058218;28;20283;-60
2022/06/14 13:31:31;;;;;;;2.88;1.77;;;;;;;;;;5057739;28;20484;-60
2022/06/14 13:34:02;;;;;;;3.53;1.70;;;;;;;;;;5056895;28;20220;-60
2022/06/14 13:36:36;;;;;;;2.58;1.50;;;;;;;;;;5042906;28;20544;-59
2022/06/14 13:39:06;;;;;;;3.95;1.80;;;;;;;;;;5037920;28;20213;-60
2022/06/14 13:41:35;;;;;;;3.63;1.55;;;;;;;;;;5043457;28;20429;-60
2022/06/14 13:44:05;;;;;;;4.13;2.08;;;;;;;;;;5056745;28;20220;-59
2022/06/14 13:46:33;;;;;;;2.15;1.77;;;;;;;;;;5046985;28;20216;-59
2022/06/14 13:49:02;;;;;;;2.80;1.88;;;;;;;;;;5036797;28;20409;-60
2022/06/14 13:51:32;;;;;;;2.50;1.58;;;;;;;;;;5046821;28;20227;-60
2022/06/14 13:54:02;;;;;;;1.88;1.70;;;;;;;;;;5037184;28;20272;-60
2022/06/14 13:56:32;;;;;;;3.08;2.00;;;;;;;;;;5036196;28;20213;-58
2022/06/14 13:59:13;;;;;;;1.90;1.80;;;;;;;;;;5050555;28;20216;-59
2022/06/14 14:01:41;;;;;;;6.07;1.88;;;;;;;;;;5057157;28;20212;-59
2022/06/14 14:04:11;;;;;;;3.28;1.80;;;;;;;;;;5056913;28;20219;-59
2022/06/14 14:06:40;;;;;;;2.78;1.70;;;;;;;;;;5056363;28;20259;-59
2022/06/14 14:09:12;;;;;;;4.05;2.38;;;;;;;;;;5057896;28;20213;-59
2022/06/14 14:11:44;;;;;;;1.88;1.67;;;;;;;;;;5038205;28;20212;-59
2022/06/14 14:14:17;;;;;;;3.20;1.98;;;;;;;;;;5037189;28;20217;-60
2022/06/14 14:16:46;;;;;;;3.05;1.63;;;;;;;;;;5036803;28;20213;-59
2022/06/14 14:19:19;;;;;;;2.35;1.73;;;;;;;;;;5037010;28;20213;-59
2022/06/14 14:21:49;;;;;;;3.08;1.80;;;;;;;;;;5037309;28;20213;-60
2022/06/14 14:24:21;;;;;;;1.80;1.48;;;;;;;;;;5037304;28;20308;-60
2022/06/14 14:26:49;;;;;;;1.70;1.60;;;;;;;;;;5044733;28;20212;-60
2022/06/14 14:29:18;;;;;;;1.90;1.77;;;;;;;;;;5056938;28;20662;-59
2022/06/14 14:31:45;;;;;;;4.50;1.75;;;;;;;;;;5057064;28;20216;-59
2022/06/14 14:34:17;;;;;;;1.92;1.83;;;;;;;;;;5056410;28;20442;-60
2022/06/14 14:36:57;;;;;;;4.30;1.45;;;;;;;;;;5055682;28;20212;-60
2022/06/14 14:39:33;;;;;;;2.03;1.83;;;;;;;;;;5056964;28;20238;-60
2022/06/14 14:42:02;;;;;;;1.90;1.73;;;;;;;;;;5057125;28;20246;-59
2022/06/14 14:44:33;;;;;;;2.05;1.60;;;;;;;;;;5056992;28;20219;-59
2022/06/14 14:47:02;;;;;;;2.50;1.67;;;;;;;;;;5056105;28;20279;-60
2022/06/14 14:49:33;;;;;;;2.97;1.83;;;;;;;;;;5056690;28;20292;-60
2022/06/14 14:52:04;;;;;;;2.33;1.55;;;;;;;;;;5057044;28;20219;-60
2022/06/14 14:54:37;;;;;;;2.50;1.70;;;;;;;;;;5056678;28;20247;-60
2022/06/14 14:57:05;;;;;;;4.63;1.70;;;;;;;;;;5046179;28;20213;-59
2022/06/14 14:59:34;;;;;;;2.17;1.90;;;;;;;;;;5036050;28;20454;-60
2022/06/14 15:07:50;;;;;;;2.95;2.00;;;;;;;;;;5036005;28;20446;-61
2022/06/14 15:10:20;;;;;;;5.63;1.90;;;;;;;;;;5038313;28;20213;-61
2022/06/14 15:12:49;;;;;;;4.18;1.55;;;;;;;;;;5036338;28;20453;-61
2022/06/14 15:15:17;;;;;;;2.67;1.45;;;;;;;;;;5036833;28;20233;-61
2022/06/14 15:20:28;;;;;;;4.53;1.80;;;;;;;;;;5035659;28;20373;-60
2022/06/14 15:22:55;;;;;;;2.05;1.60;;;;;;;;;;5035668;28;20544;-60
2022/06/14 15:25:23;;;;;;;1.85;1.70;;;;;;;;;;5036607;28;20209;-60
2022/06/14 15:27:51;;;;;;;4.13;1.48;;;;;;;;;;5035748;28;20782;-61
2022/06/14 15:30:33;;;;;;;2.08;1.55;;;;;;;;;;5036448;28;20220;-60
2022/06/14 15:33:12;;;;;;;2.00;1.90;;;;;;;;;;5046083;28;20208;-60